Time;durP1;ratioP1;P1;durP2;ratioP2;P2;SDS_P1;SDS_P2;PMS_P1;PMS_P2;Temp;Humidity;BMP_temperature;BMP_pressure;BME280_temperature;BME280_humidity;BME280_pressure;Samples;Min_cycle;Max_cycle;Signal;HPM_P1;HPM_P2
2024/01/04 00:00:43;;;;;;;1.07;0.77;;;;;;;9.66;75.34;93996.28;4974042;28;20202;-86
2024/01/04 00:03:10;;;;;;;1.03;0.77;;;;;;;9.61;73.23;93923.44;4989667;28;20208;-86
2024/01/04 00:05:40;;;;;;;0.60;0.60;;;;;;;9.63;72.49;93901.63;4988905;28;20226;-86
2024/01/04 00:08:07;;;;;;;1.90;0.67;;;;;;;9.61;71.73;93859.97;4973429;28;20208;-86
2024/01/04 00:10:36;;;;;;;2.23;1.27;;;;;;;9.67;72.03;93871.97;4975738;28;20211;-86
2024/01/04 00:13:03;;;;;;;0.70;0.50;;;;;;;9.74;70.64;93830.00;4991652;28;20209;-86
2024/01/04 00:15:30;;;;;;;1.37;0.60;;;;;;;9.77;69.96;93806.44;4990096;28;20674;-85
2024/01/04 00:17:59;;;;;;;0.90;0.70;;;;;;;9.72;69.26;93776.25;4979129;28;20278;-87
2024/01/04 00:20:26;;;;;;;2.10;0.70;;;;;;;9.77;68.71;93771.25;4991617;28;20207;-85
2024/01/04 00:22:54;;;;;;;1.20;0.90;;;;;;;9.75;67.75;93723.66;4992228;28;20235;-85
2024/01/04 00:25:20;;;;;;;1.40;0.67;;;;;;;9.68;68.07;93711.66;4991262;28;20246;-86
2024/01/04 00:27:47;;;;;;;0.77;0.40;;;;;;;9.79;67.80;93723.00;4976738;28;20207;-86
2024/01/04 00:30:16;;;;;;;2.07;0.80;;;;;;;9.78;67.34;93702.66;4991295;28;20274;-86
2024/01/04 00:32:43;;;;;;;1.13;0.70;;;;;;;9.77;66.77;93680.53;4991588;28;20308;-86
2024/01/04 00:35:09;;;;;;;1.67;0.60;;;;;;;9.70;66.07;93637.72;4988528;28;20207;-86
2024/01/04 00:37:36;;;;;;;2.60;0.93;;;;;;;9.76;66.44;93648.91;4972703;28;20204;-86
2024/01/04 00:40:05;;;;;;;0.50;0.50;;;;;;;9.81;66.06;93645.69;4971094;28;20204;-86
2024/01/04 00:42:31;;;;;;;0.80;0.63;;;;;;;9.79;65.65;93619.44;4986016;28;20229;-85
2024/01/04 00:45:04;;;;;;;2.57;0.70;;;;;;;9.70;65.25;93595.81;4989166;28;20220;-86
2024/01/04 00:47:35;;;;;;;1.90;0.60;;;;;;;9.63;65.28;93592.53;4989926;28;20204;-86
2024/01/04 00:50:02;;;;;;;2.37;0.90;;;;;;;9.72;65.27;93613.59;4983950;28;20215;-86
2024/01/04 00:52:28;;;;;;;1.20;0.70;;;;;;;9.77;65.38;93629.91;4995422;28;20245;-86
2024/01/04 00:54:56;;;;;;;1.00;0.50;;;;;;;9.78;65.20;93631.50;4989984;28;20199;-86
2024/01/04 00:57:24;;;;;;;1.13;0.90;;;;;;;9.82;65.32;93644.66;4990226;28;20199;-85
2024/01/04 00:59:50;;;;;;;1.90;0.70;;;;;;;9.93;65.35;93655.00;5010329;28;20720;-86
2024/01/04 01:02:17;;;;;;;0.77;0.60;;;;;;;9.81;65.29;93646.47;5009902;28;20238;-86
2024/01/04 01:04:46;;;;;;;1.40;0.53;;;;;;;9.70;65.47;93660.06;5010448;28;20206;-86
2024/01/04 01:07:13;;;;;;;2.17;0.80;;;;;;;9.68;65.68;93678.25;4992808;28;20203;-86
2024/01/04 01:09:52;;;;;;;0.93;0.50;;;;;;;9.61;65.97;93667.28;4989761;28;20250;-86
2024/01/04 01:12:19;;;;;;;2.33;0.87;;;;;;;9.64;65.99;93673.75;4989923;28;20754;-86
2024/01/04 01:15:10;;;;;;;2.10;0.60;;;;;;;9.65;65.74;93683.81;4990424;28;20207;-86
2024/01/04 01:17:38;;;;;;;0.80;0.53;;;;;;;9.50;65.75;93673.16;4971458;28;20207;-86
2024/01/04 01:20:07;;;;;;;1.10;0.63;;;;;;;9.59;65.81;93664.16;4989488;28;20207;-86
2024/01/04 01:22:36;;;;;;;0.40;0.40;;;;;;;9.58;65.26;93664.38;4988493;28;20266;-87
2024/01/04 01:25:12;;;;;;;2.27;0.90;;;;;;;9.58;65.53;93664.38;4989282;28;20207;-86
2024/01/04 01:27:38;;;;;;;1.00;0.57;;;;;;;9.53;65.50;93669.38;4988633;28;20203;-86
2024/01/04 01:30:07;;;;;;;1.07;0.60;;;;;;;9.55;65.53;93665.59;4989852;28;20196;-85
2024/01/04 01:32:34;;;;;;;0.67;0.60;;;;;;;9.49;65.45;93656.16;4989775;28;20286;-86
2024/01/04 01:35:01;;;;;;;0.67;0.50;;;;;;;9.49;65.57;93669.00;4989093;28;20286;-86
2024/01/04 01:37:27;;;;;;;1.97;0.70;;;;;;;9.50;65.48;93680.84;4989167;28;20210;-86
2024/01/04 01:39:54;;;;;;;0.67;0.50;;;;;;;9.56;65.25;93674.06;4988367;28;20231;-85
2024/01/04 01:42:21;;;;;;;1.13;0.60;;;;;;;9.58;65.11;93664.38;4989100;28;20226;-85
2024/01/04 01:44:50;;;;;;;0.83;0.57;;;;;;;9.50;64.94;93664.66;4989000;28;20572;-86
2024/01/04 01:47:19;;;;;;;1.23;0.63;;;;;;;9.50;65.02;93665.44;4974506;28;20215;-86
2024/01/04 01:49:45;;;;;;;1.00;0.60;;;;;;;9.37;65.16;93669.97;4969627;28;20812;-86
2024/01/04 01:52:12;;;;;;;2.07;0.80;;;;;;;9.45;65.23;93675.56;4970228;28;20224;-86
2024/01/04 01:54:39;;;;;;;1.73;0.67;;;;;;;9.50;65.58;93691.13;4975775;28;20254;-85
2024/01/04 01:57:06;;;;;;;0.70;0.50;;;;;;;9.54;65.37;93688.91;4988319;28;20204;-84
2024/01/04 01:59:32;;;;;;;0.70;0.70;;;;;;;9.46;65.71;93704.63;5007726;28;20203;-86
2024/01/04 02:01:59;;;;;;;0.90;0.50;;;;;;;9.42;65.70;93717.13;5009179;28;20226;-86
2024/01/04 02:04:26;;;;;;;1.30;0.47;;;;;;;9.47;65.45;93701.03;5008805;28;20213;-85
2024/01/04 02:06:56;;;;;;;0.97;0.50;;;;;;;9.45;65.46;93714.09;4991119;28;20204;-86
2024/01/04 02:09:23;;;;;;;1.27;0.60;;;;;;;9.38;65.99;93710.06;4971500;28;20201;-86
2024/01/04 02:11:49;;;;;;;0.50;0.50;;;;;;;9.50;65.44;93703.97;4982667;28;20238;-86
2024/01/04 02:14:15;;;;;;;1.10;0.70;;;;;;;9.51;65.28;93700.41;4989648;28;20222;-86
2024/01/04 02:16:42;;;;;;;1.03;0.60;;;;;;;9.41;64.78;93650.56;4977499;28;20810;-86
2024/01/04 02:19:09;;;;;;;1.07;0.50;;;;;;;9.44;64.43;93657.81;4970497;28;20207;-86
2024/01/04 02:21:38;;;;;;;2.67;0.60;;;;;;;9.45;64.41;93652.47;4969646;28;20228;-86
2024/01/04 02:24:06;;;;;;;0.83;0.60;;;;;;;9.34;64.16;93625.75;4982135;28;20253;-87
2024/01/04 02:26:33;;;;;;;1.53;0.90;;;;;;;9.40;63.78;93592.50;4986831;28;20203;-86
2024/01/04 02:28:59;;;;;;;1.03;0.80;;;;;;;9.39;63.61;93578.09;4988784;28;20210;-87
2024/01/04 02:31:26;;;;;;;1.73;0.70;;;;;;;9.37;63.35;93580.88;4988272;28;20854;-87
2024/01/04 02:33:52;;;;;;;1.67;0.73;;;;;;;9.39;63.26;93563.47;4988063;28;20565;-86
2024/01/04 02:36:19;;;;;;;2.50;0.80;;;;;;;9.34;62.73;93540.22;4988203;28;20588;-86
2024/01/04 02:38:45;;;;;;;1.20;0.70;;;;;;;9.41;62.67;93528.06;4989078;28;20207;-86
2024/01/04 02:41:13;;;;;;;1.97;0.60;;;;;;;9.43;62.35;93525.28;4987810;28;20216;-86
2024/01/04 02:43:40;;;;;;;1.37;0.70;;;;;;;9.45;62.23;93516.34;4987341;28;20202;-86
2024/01/04 02:46:06;;;;;;;0.83;0.60;;;;;;;9.47;61.85;93514.34;4988324;28;20203;-86
2024/01/04 02:48:32;;;;;;;0.80;0.53;;;;;;;9.42;62.44;93516.81;4988629;28;20207;-87
2024/01/04 02:51:02;;;;;;;1.87;0.80;;;;;;;9.45;62.09;93521.47;4984235;28;20227;-87
2024/01/04 02:53:28;;;;;;;1.17;0.70;;;;;;;9.53;62.30;93541.72;4988636;28;20735;-85
2024/01/04 02:55:56;;;;;;;1.07;0.67;;;;;;;9.51;62.17;93536.00;4987732;28;20571;-86
2024/01/04 02:58:24;;;;;;;1.10;0.60;;;;;;;9.48;62.44;93549.28;4995437;28;20576;-86
2024/01/04 03:00:50;;;;;;;1.40;0.60;;;;;;;9.46;62.48;93545.38;4989412;28;20210;-86
2024/01/04 03:03:17;;;;;;;1.40;0.60;;;;;;;9.49;62.78;93568.06;4992454;28;20318;-86
2024/01/04 03:05:43;;;;;;;0.53;0.50;;;;;;;9.51;63.01;93574.53;4986329;28;20203;-86
2024/01/04 03:08:13;;;;;;;1.10;0.70;;;;;;;9.53;62.94;93585.38;4972804;28;20304;-86
2024/01/04 03:10:42;;;;;;;0.63;0.60;;;;;;;9.48;62.89;93577.53;4976852;28;20222;-86
2024/01/04 03:13:08;;;;;;;1.43;0.50;;;;;;;9.47;62.99;93580.31;4977862;28;20220;-86
2024/01/04 03:15:36;;;;;;;0.80;0.50;;;;;;;9.48;63.36;93584.47;4980128;28;20411;-87
2024/01/04 03:18:03;;;;;;;1.03;0.50;;;;;;;9.49;63.63;93602.22;4992280;28;20214;-86
2024/01/04 03:20:29;;;;;;;0.83;0.53;;;;;;;9.46;63.63;93607.00;4990885;28;20292;-86
2024/01/04 03:22:56;;;;;;;1.00;0.40;;;;;;;9.39;63.70;93598.63;4991799;28;20219;-85
2024/01/04 03:25:22;;;;;;;0.50;0.50;;;;;;;9.34;63.73;93625.75;4989667;28;20198;-86
2024/01/04 03:27:49;;;;;;;0.97;0.50;;;;;;;9.34;63.86;93625.75;4973209;28;20550;-86
2024/01/04 03:30:19;;;;;;;0.73;0.40;;;;;;;9.33;64.10;93629.31;4972640;28;20767;-88
2024/01/04 03:32:55;;;;;;;0.43;0.43;;;;;;;9.38;63.70;93636.38;4988551;28;20238;-87
2024/01/04 03:35:26;;;;;;;0.63;0.40;;;;;;;9.35;63.70;93616.25;4990689;28;20200;-87
2024/01/04 03:37:59;;;;;;;1.23;0.60;;;;;;;9.44;63.49;93622.63;4991845;28;20208;-87
2024/01/04 03:40:26;;;;;;;2.10;0.63;;;;;;;9.49;63.47;93617.63;4991214;28;20207;-86
2024/01/04 03:42:52;;;;;;;0.40;0.40;;;;;;;9.54;63.34;93620.34;4991463;28;20221;-86
2024/01/04 03:45:19;;;;;;;0.80;0.50;;;;;;;9.50;63.63;93632.06;4990881;28;20224;-86
2024/01/04 03:47:47;;;;;;;0.80;0.50;;;;;;;9.47;63.32;93631.69;4991075;28;20199;-86
2024/01/04 03:50:13;;;;;;;2.67;0.90;;;;;;;9.46;63.51;93641.19;4991717;28;20211;-86
2024/01/04 03:52:40;;;;;;;1.87;0.50;;;;;;;9.41;63.51;93630.81;4991905;28;20227;-86
2024/01/04 03:55:06;;;;;;;2.17;0.70;;;;;;;9.41;63.49;93642.84;4990672;28;20191;-86
2024/01/04 03:57:33;;;;;;;1.87;0.63;;;;;;;9.34;63.61;93622.38;4992106;28;20204;-86
2024/01/04 04:00:01;;;;;;;1.47;0.70;;;;;;;9.38;63.72;93643.28;4991515;28;20203;-86
2024/01/04 04:02:27;;;;;;;1.33;0.63;;;;;;;9.30;64.11;93670.81;4991604;28;20310;-86
2024/01/04 04:04:56;;;;;;;1.00;0.60;;;;;;;9.36;63.98;93661.47;5009165;28;20215;-86
2024/01/04 04:07:22;;;;;;;0.90;0.60;;;;;;;9.34;64.21;93671.19;4991708;28;20654;-86
2024/01/04 04:09:49;;;;;;;1.07;0.70;;;;;;;9.38;64.24;93681.81;4999141;28;20226;-86
2024/01/04 04:12:15;;;;;;;1.13;0.47;;;;;;;9.36;64.30;93676.88;5007512;28;20223;-86
2024/01/04 04:14:42;;;;;;;0.93;0.70;;;;;;;9.39;64.95;93709.84;4986551;28;20218;-86
2024/01/04 04:17:08;;;;;;;1.97;0.63;;;;;;;9.35;64.43;93706.91;5003301;28;20205;-87
2024/01/04 04:19:35;;;;;;;0.80;0.67;;;;;;;9.35;65.21;93732.59;5006704;28;20212;-85
2024/01/04 04:22:03;;;;;;;1.00;0.70;;;;;;;9.28;66.06;93762.69;5008586;28;20228;-86
2024/01/04 04:24:30;;;;;;;1.97;0.70;;;;;;;9.26;67.21;93826.31;5007048;28;20237;-86
2024/01/04 04:26:56;;;;;;;1.40;0.70;;;;;;;9.22;67.69;93848.28;5006622;28;20195;-85
2024/01/04 04:29:23;;;;;;;1.60;0.80;;;;;;;9.19;67.66;93850.47;5006136;28;20223;-86
2024/01/04 04:31:50;;;;;;;2.10;0.80;;;;;;;9.23;67.43;93841.38;5005269;28;20228;-85
2024/01/04 04:34:16;;;;;;;1.43;0.60;;;;;;;9.15;67.20;93819.31;4993313;28;20290;-86
2024/01/04 04:36:42;;;;;;;1.87;0.57;;;;;;;9.18;67.00;93826.59;4966277;28;20248;-86
2024/01/04 04:39:10;;;;;;;2.13;0.70;;;;;;;9.11;67.08;93822.50;4990536;28;20214;-86
2024/01/04 04:41:39;;;;;;;1.77;0.77;;;;;;;9.10;66.71;93800.38;4992276;28;20219;-87
2024/01/04 04:44:08;;;;;;;1.87;0.70;;;;;;;9.17;66.69;93796.00;4992027;28;20593;-86
2024/01/04 04:46:34;;;;;;;1.50;0.60;;;;;;;9.12;65.62;93780.44;4978844;28;20666;-86
2024/01/04 04:49:01;;;;;;;1.27;0.50;;;;;;;9.17;65.53;93745.44;4985479;28;20634;-87
2024/01/04 04:51:28;;;;;;;1.63;0.63;;;;;;;9.22;65.04;93747.38;4990929;28;20223;-86
2024/01/04 04:53:58;;;;;;;1.73;0.80;;;;;;;9.20;65.13;93747.56;4991345;28;20212;-86
2024/01/04 04:56:26;;;;;;;1.90;0.77;;;;;;;9.13;65.07;93739.16;4991233;28;20286;-86
2024/01/04 04:58:52;;;;;;;0.70;0.60;;;;;;;9.12;65.26;93723.94;4972626;28;20200;-86
2024/01/04 05:01:22;;;;;;;1.60;0.50;;;;;;;9.16;64.95;93746.44;4971838;28;20536;-88
2024/01/04 05:03:49;;;;;;;0.87;0.73;;;;;;;9.06;65.33;93764.09;4978001;28;20203;-88
2024/01/04 05:06:15;;;;;;;1.13;0.60;;;;;;;9.05;65.83;93780.47;4987658;28;20254;-87
2024/01/04 05:08:41;;;;;;;1.43;0.70;;;;;;;9.07;66.25;93809.28;4984199;28;20756;-87
2024/01/04 05:11:08;;;;;;;1.57;0.90;;;;;;;9.12;66.40;93831.78;4989425;28;20219;-87
2024/01/04 05:13:36;;;;;;;0.50;0.50;;;;;;;9.16;66.72;93850.91;4989470;28;20195;-87
2024/01/04 05:16:07;;;;;;;1.50;0.70;;;;;;;9.02;67.05;93886.16;4990014;28;20199;-87
2024/01/04 05:18:36;;;;;;;0.73;0.60;;;;;;;8.98;67.94;93898.63;4990713;28;20243;-87
2024/01/04 05:21:03;;;;;;;2.10;0.60;;;;;;;8.99;68.33;93961.78;4985317;28;20220;-88
2024/01/04 05:23:29;;;;;;;0.50;0.50;;;;;;;8.92;68.85;93958.47;4970197;28;20202;-86
2024/01/04 05:25:56;;;;;;;0.80;0.70;;;;;;;8.91;69.05;93972.28;4989071;28;20726;-87
2024/01/04 05:28:22;;;;;;;0.90;0.50;;;;;;;8.83;69.69;94000.78;4990319;28;20662;-87
2024/01/04 05:30:50;;;;;;;2.13;0.63;;;;;;;8.82;69.57;94014.59;4990033;28;20231;-87
2024/01/04 05:33:22;;;;;;;0.87;0.60;;;;;;;8.83;69.88;94023.06;4989667;28;20238;-86
2024/01/04 05:35:50;;;;;;;1.03;0.50;;;;;;;8.84;69.82;94020.31;4990469;28;20991;-87
2024/01/04 05:38:28;;;;;;;0.50;0.50;;;;;;;8.90;69.67;94006.63;4990675;28;20238;-87
2024/01/04 05:41:04;;;;;;;1.50;0.53;;;;;;;8.90;69.13;93995.59;4988097;28;20218;-87
2024/01/04 05:43:33;;;;;;;0.40;0.40;;;;;;;8.96;68.89;93994.78;4990306;28;20203;-87
2024/01/04 05:46:04;;;;;;;0.80;0.40;;;;;;;8.95;68.55;93968.31;4990167;28;20258;-87
2024/01/04 05:48:30;;;;;;;0.50;0.43;;;;;;;8.95;68.75;93990.63;4990505;28;20242;-87
2024/01/04 05:50:57;;;;;;;1.20;0.70;;;;;;;8.93;68.79;93998.53;4989574;28;20746;-87
2024/01/04 05:53:23;;;;;;;0.70;0.40;;;;;;;8.92;68.57;93985.91;4989540;28;20215;-85
2024/01/04 05:55:53;;;;;;;0.93;0.50;;;;;;;8.95;68.81;94011.16;4989008;28;20291;-87
2024/01/04 05:58:20;;;;;;;1.27;0.57;;;;;;;8.93;68.65;94021.63;4989543;28;20227;-88
2024/01/04 06:00:53;;;;;;;0.83;0.50;;;;;;;8.95;68.95;94024.78;4989073;28;20204;-88
2024/01/04 06:03:35;;;;;;;0.60;0.57;;;;;;;8.98;68.57;94024.38;4990150;28;20218;-88
2024/01/04 06:06:02;;;;;;;1.03;0.50;;;;;;;8.93;68.79;94018.28;4989142;28;20199;-88
2024/01/04 06:08:37;;;;;;;0.50;0.50;;;;;;;8.83;68.78;94026.44;4989301;28;20282;-88
2024/01/04 06:11:10;;;;;;;0.50;0.50;;;;;;;8.87;68.50;94029.34;4989216;28;20226;-86
2024/01/04 06:13:42;;;;;;;0.97;0.50;;;;;;;8.79;68.50;94039.88;4987928;28;20215;-87
2024/01/04 06:16:14;;;;;;;1.57;0.60;;;;;;;8.93;68.43;94036.25;4989372;28;20199;-88
2024/01/04 06:18:51;;;;;;;1.23;0.60;;;;;;;8.86;68.33;94022.66;4989203;28;20211;-88
2024/01/04 06:21:29;;;;;;;0.50;0.50;;;;;;;8.81;68.69;94055.84;4988825;28;20219;-88
2024/01/04 06:23:59;;;;;;;2.07;0.80;;;;;;;8.84;68.32;94052.88;4989165;28;20190;-88
2024/01/04 06:26:37;;;;;;;2.47;0.70;;;;;;;8.74;68.90;94055.06;4989086;28;20294;-86
2024/01/04 06:29:03;;;;;;;0.67;0.43;;;;;;;8.82;68.68;94070.25;4988322;28;20221;-88
2024/01/04 06:31:50;;;;;;;0.83;0.50;;;;;;;8.78;68.41;94058.81;4988864;28;20227;-87
2024/01/04 06:34:20;;;;;;;0.50;0.50;;;;;;;8.79;68.53;94079.13;4988606;28;20213;-87
2024/01/04 06:36:54;;;;;;;1.43;0.60;;;;;;;8.73;68.84;94091.97;4989030;28;20215;-86
2024/01/04 06:39:21;;;;;;;1.20;0.60;;;;;;;8.74;68.65;94094.34;4989688;28;20183;-88
2024/01/04 06:41:47;;;;;;;2.43;1.13;;;;;;;8.75;68.75;94077.97;4989329;28;20226;-88
2024/01/04 06:44:16;;;;;;;1.93;0.83;;;;;;;8.72;68.83;94087.84;4988471;28;20211;-87
2024/01/04 06:46:43;;;;;;;1.40;0.60;;;;;;;8.74;68.66;94096.91;4988240;28;20214;-87
2024/01/04 06:49:09;;;;;;;0.83;0.60;;;;;;;8.76;68.48;94100.06;4988618;28;20211;-87
2024/01/04 06:51:42;;;;;;;1.57;1.17;;;;;;;8.65;68.54;94096.34;4988736;28;20286;-87
2024/01/04 06:54:08;;;;;;;1.17;0.87;;;;;;;8.68;69.18;94097.72;4988811;28;20275;-88
2024/01/04 06:56:35;;;;;;;1.20;0.60;;;;;;;8.72;69.03;94114.28;4989051;28;20200;-88
2024/01/04 06:59:03;;;;;;;1.13;0.67;;;;;;;8.76;69.06;94112.09;4988870;28;20865;-87
2024/01/04 07:01:30;;;;;;;0.60;0.60;;;;;;;8.82;68.96;94124.94;4987038;28;20689;-88
2024/01/04 07:04:06;;;;;;;0.70;0.60;;;;;;;8.83;69.30;94139.34;4988254;28;20223;-87
2024/01/04 07:06:43;;;;;;;1.13;0.80;;;;;;;8.77;69.57;94152.97;4984404;28;20697;-87
2024/01/04 07:09:17;;;;;;;0.50;0.43;;;;;;;8.85;69.84;94150.16;4983714;28;20192;-89
2024/01/04 07:12:10;;;;;;;1.63;0.60;;;;;;;8.78;69.70;94171.72;4987995;28;20214;-87
2024/01/04 07:17:22;;;;;;;0.83;0.50;;;;;;;8.92;69.40;94175.81;4986070;28;20219;-87
2024/01/04 07:19:49;;;;;;;0.80;0.60;;;;;;;8.93;69.29;94167.94;4987957;28;20294;-88
2024/01/04 07:22:17;;;;;;;0.93;0.50;;;;;;;8.97;69.14;94169.09;4989017;28;20211;-87
2024/01/04 07:24:58;;;;;;;1.43;0.60;;;;;;;9.00;69.15;94181.53;4988745;28;20200;-87
2024/01/04 07:27:27;;;;;;;1.13;0.70;;;;;;;8.98;68.88;94164.75;4988792;28;20222;-87
2024/01/04 07:30:11;;;;;;;0.50;0.50;;;;;;;8.89;68.65;94140.28;4988135;28;20262;-87
2024/01/04 07:32:38;;;;;;;0.67;0.50;;;;;;;8.87;68.60;94147.41;4984436;28;20223;-87
2024/01/04 07:35:23;;;;;;;0.60;0.60;;;;;;;8.89;68.55;94155.69;4982347;28;20207;-89
2024/01/04 07:37:51;;;;;;;2.93;0.50;;;;;;;8.94;68.43;94158.44;4983449;28;20207;-89
2024/01/04 07:40:53;;;;;;;1.40;0.80;;;;;;;9.04;67.97;94142.66;4983898;28;20195;-89
2024/01/04 07:43:20;;;;;;;1.30;1.00;;;;;;;9.00;68.35;94129.41;4956962;28;20230;-90
2024/01/04 07:45:55;;;;;;;1.47;0.90;;;;;;;9.03;68.03;94141.06;4988433;28;20220;-89
2024/01/04 07:48:25;;;;;;;0.67;0.67;;;;;;;8.98;68.35;94132.19;4991839;28;20286;-89
2024/01/04 07:50:59;;;;;;;2.00;0.70;;;;;;;9.05;68.19;94144.19;4990279;28;20214;-89
2024/01/04 07:53:40;;;;;;;1.23;0.50;;;;;;;9.08;67.85;94149.72;4981730;28;20254;-89
2024/01/04 07:56:12;;;;;;;1.30;0.70;;;;;;;9.20;68.14;94140.41;4991278;28;20219;-89
2024/01/04 07:58:45;;;;;;;1.17;0.77;;;;;;;9.14;67.59;94128.38;4992351;28;20203;-89
2024/01/04 08:02:00;;;;;;;1.67;0.80;;;;;;;9.11;67.74;94144.19;4991138;28;20223;-89
2024/01/04 08:04:35;;;;;;;2.33;0.90;;;;;;;9.15;67.70;94124.03;4990403;28;20754;-89
2024/01/04 08:07:05;;;;;;;2.00;0.80;;;;;;;9.13;67.59;94146.56;4990170;28;20199;-90
2024/01/04 08:09:50;;;;;;;1.80;0.80;;;;;;;9.13;67.81;94138.84;4990962;28;20215;-89
2024/01/04 08:12:25;;;;;;;1.70;0.90;;;;;;;9.17;67.43;94148.50;4988190;28;20229;-90
2024/01/04 08:14:54;;;;;;;4.57;0.93;;;;;;;9.21;67.29;94146.34;4990711;28;20195;-90
2024/01/04 08:17:33;;;;;;;1.50;0.80;;;;;;;9.15;67.06;94147.13;4990182;28;20257;-89
2024/01/04 08:22:57;;;;;;;2.33;0.90;;;;;;;9.12;67.11;94140.63;4988189;28;20238;-89
2024/01/04 08:25:25;;;;;;;1.03;0.60;;;;;;;9.21;67.03;94144.56;4994821;28;20332;-89
2024/01/04 08:27:54;;;;;;;1.37;0.93;;;;;;;9.15;66.70;94144.56;4991421;28;20270;-88
2024/01/04 08:30:21;;;;;;;1.97;0.60;;;;;;;9.25;66.90;94144.91;4990816;28;20218;-89
2024/01/04 08:32:47;;;;;;;1.67;1.00;;;;;;;9.41;66.36;94126.50;4991256;28;20322;-89
2024/01/04 08:35:22;;;;;;;0.97;0.60;;;;;;;9.67;65.66;94116.06;4990094;28;20210;-90
2024/01/04 08:37:51;;;;;;;3.70;1.10;;;;;;;9.52;65.88;94114.78;4990170;28;20584;-88
2024/01/04 08:40:18;;;;;;;0.50;0.50;;;;;;;9.34;66.46;94144.50;4990396;28;20390;-89
2024/01/04 08:42:46;;;;;;;1.53;0.60;;;;;;;9.34;66.80;94154.78;4990370;28;20239;-89
2024/01/04 08:45:22;;;;;;;2.80;0.90;;;;;;;9.19;67.32;94176.56;4990618;28;20211;-88
2024/01/04 08:47:49;;;;;;;4.10;2.70;;;;;;;9.17;67.29;94210.13;4990794;28;20593;-89
2024/01/04 08:50:17;;;;;;;2.50;1.03;;;;;;;9.07;67.80;94229.50;4991319;28;20200;-88
2024/01/04 08:52:44;;;;;;;1.33;0.70;;;;;;;8.99;68.15;94217.69;4991501;28;20234;-89
2024/01/04 08:55:10;;;;;;;1.30;0.90;;;;;;;9.15;67.83;94221.59;4988911;28;20891;-89
2024/01/04 08:57:50;;;;;;;2.03;0.80;;;;;;;9.32;67.05;94197.06;4990142;28;20262;-87
2024/01/04 09:00:17;;;;;;;1.70;0.80;;;;;;;9.34;66.41;94169.41;4989878;28;20235;-87
2024/01/04 09:02:45;;;;;;;1.67;0.60;;;;;;;9.34;66.27;94162.47;4990120;28;20228;-86
2024/01/04 09:05:12;;;;;;;1.53;0.70;;;;;;;9.27;66.08;94140.38;4990491;28;20207;-86
2024/01/04 09:07:43;;;;;;;1.57;0.90;;;;;;;9.31;66.13;94138.97;4990653;28;20204;-87
2024/01/04 09:10:12;;;;;;;1.23;0.90;;;;;;;9.31;66.03;94144.09;4989741;28;20202;-86
2024/01/04 09:12:42;;;;;;;1.93;0.70;;;;;;;9.28;65.88;94139.38;4981789;28;20235;-87
2024/01/04 09:15:10;;;;;;;2.33;0.80;;;;;;;9.24;65.96;94145.91;4990591;28;20202;-87
2024/01/04 09:17:37;;;;;;;0.77;0.57;;;;;;;9.18;65.30;94123.63;4989972;28;20942;-86
2024/01/04 09:20:13;;;;;;;2.07;0.80;;;;;;;9.23;65.22;94114.34;4989621;28;20511;-86
2024/01/04 09:22:44;;;;;;;1.30;0.70;;;;;;;9.21;64.90;94108.63;4990197;28;20700;-87
2024/01/04 09:25:12;;;;;;;1.23;0.90;;;;;;;9.25;64.92;94112.31;4990253;28;20230;-86
2024/01/04 09:27:39;;;;;;;2.90;0.97;;;;;;;9.32;64.59;94097.69;4988903;28;20200;-89
2024/01/04 09:30:19;;;;;;;1.30;0.60;;;;;;;9.44;64.62;94104.72;4988960;28;20207;-86
2024/01/04 09:33:13;;;;;;;;;;;;;;;;;;;;;
2024/01/04 09:35:42;;;;;;;1.03;0.70;;;;;;;9.55;64.27;94086.91;4989706;28;20200;-87
2024/01/04 09:38:10;;;;;;;1.33;0.70;;;;;;;9.53;63.90;94070.91;4989869;28;20282;-86
2024/01/04 09:40:36;;;;;;;2.47;1.30;;;;;;;9.37;63.79;94101.41;4988724;28;20744;-87
2024/01/04 09:43:03;;;;;;;1.67;0.70;;;;;;;9.40;64.60;94101.81;4987350;28;20231;-86
2024/01/04 09:45:42;;;;;;;2.40;0.73;;;;;;;9.53;63.85;94086.31;4989407;28;20353;-87
2024/01/04 09:48:28;;;;;;;0.97;0.70;;;;;;;9.47;63.85;94068.34;4989927;28;20230;-87
2024/01/04 09:50:56;;;;;;;0.87;0.50;;;;;;;9.47;64.17;94069.16;4989218;28;20200;-86
2024/01/04 09:53:23;;;;;;;1.20;0.63;;;;;;;9.60;64.05;94092.22;4989208;28;20223;-86
2024/01/04 09:58:59;;;;;;;1.33;0.70;;;;;;;9.63;63.46;94055.81;4987936;28;20211;-87
2024/01/04 10:01:35;;;;;;;3.67;1.40;;;;;;;9.75;63.36;94068.00;4989119;28;20223;-89
2024/01/04 10:04:37;;;;;;;1.63;1.03;;;;;;;9.90;62.53;94030.69;4994904;28;20183;-86
2024/01/04 10:07:07;;;;;;;2.53;0.80;;;;;;;10.02;62.24;94016.16;4989418;28;20552;-86
2024/01/04 10:09:49;;;;;;;2.60;1.00;;;;;;;10.09;61.86;93995.53;4988278;28;20207;-86
2024/01/04 10:12:21;;;;;;;2.97;1.30;;;;;;;10.14;61.49;93980.25;4988795;28;20600;-86
2024/01/04 10:14:48;;;;;;;2.53;1.20;;;;;;;10.37;60.98;93962.44;4988173;28;20216;-86
2024/01/04 10:17:37;;;;;;;3.27;1.13;;;;;;;10.34;60.64;93939.72;4969306;28;20266;-86
2024/01/04 10:20:04;;;;;;;1.80;1.03;;;;;;;10.32;60.73;93939.16;4967302;28;20212;-86
2024/01/04 10:22:31;;;;;;;1.70;0.80;;;;;;;10.28;60.85;93922.56;4971507;28;20232;-86
2024/01/04 10:25:08;;;;;;;2.00;0.80;;;;;;;10.09;60.56;93917.59;4970430;28;20231;-86
2024/01/04 10:27:34;;;;;;;2.83;1.00;;;;;;;10.19;60.34;93925.66;4970287;28;20203;-87
2024/01/04 10:30:06;;;;;;;1.33;1.03;;;;;;;10.27;60.22;93899.63;4969272;28;20210;-86
2024/01/04 10:32:36;;;;;;;1.87;0.80;;;;;;;10.35;60.21;93912.22;4977231;28;20321;-86
2024/01/04 10:35:04;;;;;;;1.83;0.87;;;;;;;10.75;59.20;93870.53;4968919;28;20276;-86
2024/01/04 10:37:32;;;;;;;1.93;1.10;;;;;;;10.92;58.83;93858.63;4969636;28;20865;-86
2024/01/04 10:40:01;;;;;;;2.37;1.00;;;;;;;10.96;57.64;93798.75;4970670;28;20211;-85
2024/01/04 10:42:28;;;;;;;2.10;0.87;;;;;;;10.76;58.07;93797.47;4984416;28;20219;-85
2024/01/04 10:45:10;;;;;;;2.27;1.03;;;;;;;10.57;58.16;93786.47;4988685;28;20728;-86
2024/01/04 10:47:41;;;;;;;1.60;0.80;;;;;;;10.59;58.05;93797.28;4987931;28;20208;-86
2024/01/04 10:50:11;;;;;;;1.83;1.00;;;;;;;10.57;58.09;93802.69;4988544;28;20207;-85
2024/01/04 10:52:43;;;;;;;1.23;0.80;;;;;;;10.54;58.12;93816.00;4988870;28;20223;-86
2024/01/04 10:55:11;;;;;;;3.80;1.10;;;;;;;10.62;58.24;93820.03;4988383;28;20290;-85
2024/01/04 10:57:41;;;;;;;2.07;0.90;;;;;;;10.68;58.29;93847.47;4988971;28;20295;-86
2024/01/04 11:00:11;;;;;;;0.87;0.73;;;;;;;10.82;57.72;93806.84;4989441;28;20214;-88
2024/01/04 11:02:39;;;;;;;1.47;0.90;;;;;;;10.88;57.79;93803.41;4988517;28;20231;-86
2024/01/04 11:05:11;;;;;;;1.40;0.80;;;;;;;10.79;57.43;93800.38;4983858;28;20200;-85
2024/01/04 11:07:40;;;;;;;3.13;1.00;;;;;;;10.89;57.74;93808.34;4991274;28;20298;-86
2024/01/04 11:10:09;;;;;;;1.93;0.87;;;;;;;11.05;56.71;93796.59;4989925;28;20210;-85
2024/01/04 11:12:37;;;;;;;3.37;1.10;;;;;;;10.85;57.34;93786.63;4989558;28;20310;-86
2024/01/04 11:15:05;;;;;;;1.73;0.80;;;;;;;10.91;57.20;93795.25;4989648;28;20740;-85
2024/01/04 11:17:47;;;;;;;1.53;0.87;;;;;;;10.88;56.67;93780.25;4991592;28;20199;-88
2024/01/04 11:20:32;;;;;;;1.63;0.90;;;;;;;10.82;57.07;93787.06;4988720;28;20195;-87
2024/01/04 11:23:27;;;;;;;1.63;0.90;;;;;;;10.73;57.50;93820.06;4992129;28;20318;-88
2024/01/04 11:26:26;;;;;;;2.63;1.10;;;;;;;10.76;58.03;93813.69;4993076;28;20311;-89
2024/01/04 11:28:57;;;;;;;1.03;0.77;;;;;;;10.67;57.94;93809.84;4993325;28;20196;-88
2024/01/04 11:31:25;;;;;;;2.47;0.90;;;;;;;10.60;57.53;93784.22;4992792;28;20228;-86
2024/01/04 11:33:52;;;;;;;2.90;0.80;;;;;;;10.60;57.57;93788.56;4993143;28;20306;-85
2024/01/04 11:36:45;;;;;;;2.07;0.90;;;;;;;10.67;57.52;93812.44;4991980;28;20242;-85
2024/01/04 11:39:23;;;;;;;1.40;0.80;;;;;;;10.71;57.36;93786.03;4994158;28;20202;-87
2024/01/04 11:41:58;;;;;;;1.20;1.00;;;;;;;10.77;57.99;93815.28;4992362;28;20310;-88
2024/01/04 11:44:35;;;;;;;4.73;1.27;;;;;;;10.94;57.50;93818.75;4991773;28;20206;-86
2024/01/04 11:47:01;;;;;;;3.90;1.00;;;;;;;10.94;57.67;93812.84;4988107;28;20210;-86
2024/01/04 11:49:35;;;;;;;2.10;0.77;;;;;;;10.56;57.38;93770.25;4992307;28;20216;-86
2024/01/04 11:52:04;;;;;;;2.30;0.70;;;;;;;10.38;58.16;93796.81;4990853;28;20778;-85
2024/01/04 11:54:31;;;;;;;1.33;0.80;;;;;;;10.36;58.24;93844.34;4992136;28;20231;-85
2024/01/04 11:57:17;;;;;;;1.93;0.70;;;;;;;10.22;59.44;93896.91;4991879;28;20203;-87
2024/01/04 11:59:48;;;;;;;2.50;0.90;;;;;;;10.18;60.51;93986.56;4991624;28;20211;-86
2024/01/04 12:02:19;;;;;;;0.70;0.70;;;;;;;10.11;61.03;94003.03;5003828;28;20228;-85
2024/01/04 12:04:52;;;;;;;1.00;0.90;;;;;;;10.00;60.93;93987.31;4991434;28;20703;-88